Woden, Iowa
Current Conditions -  °F | °C
As of 5:15 PM on Wednesday 26 Nov 2014 (Local Time) from KFXY Reporting Station
Broken Clouds Broken Clouds  
Wind Chill: 16°   Ceiling: 900
Heat Index: 27°   Visibility: 7mi
Dew Point: 27°   Wind: 13mph
Humidity: 100%   Direction: 340°NNW
Pressure: 30.23"   Gusts: NA
Location:  43.23°N, 93.91°W
Report Text: KFXY 262315Z AUTO 34011KT 7SM BKN009 BKN020 BKN028 M03/M03 A3023 RMK AO2
Loading
Personal Weather Stations






























Interactive Weather Map New forecast layout! Learn more

10-Day Weather Forecast

Advertisements
Track Severe Weather on mobile